sensor_id;sensor_type;location;lat;lon;timestamp;P1;durP1;ratioP1;P2;durP2;ratioP2
10872;SDS011;34586;53.616;10.032;2022-11-24T00:01:00;9.50;;;4.17;;
10872;SDS011;34586;53.616;10.032;2022-11-24T00:03:30;10.87;;;4.60;;
10872;SDS011;34586;53.616;10.032;2022-11-24T00:05:56;9.27;;;4.60;;
10872;SDS011;34586;53.616;10.032;2022-11-24T00:08:28;6.50;;;4.17;;
10872;SDS011;34586;53.616;10.032;2022-11-24T00:11:00;7.63;;;4.20;;
10872;SDS011;34586;53.616;10.032;2022-11-24T00:13:31;8.00;;;4.10;;
10872;SDS011;34586;53.616;10.032;2022-11-24T00:16:06;6.30;;;3.97;;
10872;SDS011;34586;53.616;10.032;2022-11-24T00:18:33;7.53;;;4.30;;
10872;SDS011;34586;53.616;10.032;2022-11-24T00:20:59;6.73;;;4.30;;
10872;SDS011;34586;53.616;10.032;2022-11-24T00:23:25;10.77;;;4.67;;
10872;SDS011;34586;53.616;10.032;2022-11-24T00:25:52;8.77;;;4.50;;
10872;SDS011;34586;53.616;10.032;2022-11-24T00:28:17;9.23;;;4.73;;
10872;SDS011;34586;53.616;10.032;2022-11-24T00:30:44;7.60;;;3.80;;
10872;SDS011;34586;53.616;10.032;2022-11-24T00:33:09;8.47;;;4.27;;
10872;SDS011;34586;53.616;10.032;2022-11-24T00:35:35;11.50;;;4.37;;
10872;SDS011;34586;53.616;10.032;2022-11-24T00:38:01;4.77;;;3.87;;
10872;SDS011;34586;53.616;10.032;2022-11-24T00:40:26;7.47;;;4.17;;
10872;SDS011;34586;53.616;10.032;2022-11-24T00:42:52;8.27;;;4.20;;
10872;SDS011;34586;53.616;10.032;2022-11-24T00:45:18;7.77;;;3.90;;
10872;SDS011;34586;53.616;10.032;2022-11-24T00:47:43;7.30;;;4.07;;
10872;SDS011;34586;53.616;10.032;2022-11-24T00:50:10;7.33;;;4.27;;
10872;SDS011;34586;53.616;10.032;2022-11-24T00:52:36;8.33;;;4.13;;
10872;SDS011;34586;53.616;10.032;2022-11-24T00:55:01;7.73;;;4.40;;
10872;SDS011;34586;53.616;10.032;2022-11-24T00:57:27;8.10;;;4.20;;
10872;SDS011;34586;53.616;10.032;2022-11-24T00:59:53;9.03;;;3.70;;
10872;SDS011;34586;53.616;10.032;2022-11-24T01:02:19;7.47;;;3.73;;
10872;SDS011;34586;53.616;10.032;2022-11-24T01:04:44;9.57;;;4.60;;
10872;SDS011;34586;53.616;10.032;2022-11-24T01:07:11;6.53;;;3.90;;
10872;SDS011;34586;53.616;10.032;2022-11-24T01:09:37;9.13;;;4.90;;
10872;SDS011;34586;53.616;10.032;2022-11-24T01:12:03;8.83;;;4.10;;
10872;SDS011;34586;53.616;10.032;2022-11-24T01:14:29;8.43;;;4.40;;
10872;SDS011;34586;53.616;10.032;2022-11-24T01:16:56;9.23;;;4.30;;
10872;SDS011;34586;53.616;10.032;2022-11-24T01:19:22;8.03;;;4.27;;
10872;SDS011;34586;53.616;10.032;2022-11-24T01:21:48;9.20;;;4.43;;
10872;SDS011;34586;53.616;10.032;2022-11-24T01:24:14;6.87;;;3.83;;
10872;SDS011;34586;53.616;10.032;2022-11-24T01:26:40;7.83;;;4.23;;
10872;SDS011;34586;53.616;10.032;2022-11-24T01:29:05;7.20;;;4.50;;
10872;SDS011;34586;53.616;10.032;2022-11-24T01:31:31;6.40;;;4.03;;
10872;SDS011;34586;53.616;10.032;2022-11-24T01:33:57;8.80;;;4.50;;
10872;SDS011;34586;53.616;10.032;2022-11-24T01:36:24;8.93;;;4.53;;
10872;SDS011;34586;53.616;10.032;2022-11-24T01:38:50;9.57;;;3.87;;
10872;SDS011;34586;53.616;10.032;2022-11-24T01:41:20;8.23;;;4.60;;
10872;SDS011;34586;53.616;10.032;2022-11-24T01:43:47;6.50;;;4.30;;
10872;SDS011;34586;53.616;10.032;2022-11-24T01:46:30;8.83;;;4.67;;
10872;SDS011;34586;53.616;10.032;2022-11-24T01:49:16;8.77;;;4.40;;
10872;SDS011;34586;53.616;10.032;2022-11-24T01:51:47;8.87;;;4.70;;
10872;SDS011;34586;53.616;10.032;2022-11-24T01:56:45;6.07;;;4.23;;
10872;SDS011;34586;53.616;10.032;2022-11-24T01:59:16;9.93;;;4.23;;
10872;SDS011;34586;53.616;10.032;2022-11-24T02:01:43;6.07;;;4.23;;
10872;SDS011;34586;53.616;10.032;2022-11-24T02:04:11;7.20;;;4.33;;
10872;SDS011;34586;53.616;10.032;2022-11-24T02:06:40;10.33;;;5.00;;
10872;SDS011;34586;53.616;10.032;2022-11-24T02:09:12;6.37;;;4.50;;
10872;SDS011;34586;53.616;10.032;2022-11-24T02:11:45;6.97;;;4.30;;
10872;SDS011;34586;53.616;10.032;2022-11-24T02:14:13;10.47;;;4.77;;
10872;SDS011;34586;53.616;10.032;2022-11-24T02:16:42;5.20;;;4.13;;
10872;SDS011;34586;53.616;10.032;2022-11-24T02:19:15;6.80;;;4.50;;
10872;SDS011;34586;53.616;10.032;2022-11-24T02:22:03;8.00;;;4.27;;
10872;SDS011;34586;53.616;10.032;2022-11-24T02:25:07;6.87;;;4.53;;
10872;SDS011;34586;53.616;10.032;2022-11-24T02:27:54;8.27;;;4.20;;
10872;SDS011;34586;53.616;10.032;2022-11-24T02:30:20;8.63;;;3.83;;
10872;SDS011;34586;53.616;10.032;2022-11-24T02:32:46;7.37;;;4.40;;
10872;SDS011;34586;53.616;10.032;2022-11-24T02:35:12;5.53;;;4.27;;
10872;SDS011;34586;53.616;10.032;2022-11-24T02:37:38;8.13;;;4.67;;
10872;SDS011;34586;53.616;10.032;2022-11-24T02:40:04;7.20;;;4.00;;
10872;SDS011;34586;53.616;10.032;2022-11-24T02:42:32;4.87;;;4.17;;
10872;SDS011;34586;53.616;10.032;2022-11-24T02:45:01;9.20;;;4.20;;
10872;SDS011;34586;53.616;10.032;2022-11-24T02:47:27;8.17;;;4.90;;
10872;SDS011;34586;53.616;10.032;2022-11-24T02:49:52;7.70;;;4.80;;
10872;SDS011;34586;53.616;10.032;2022-11-24T02:52:18;6.27;;;4.73;;
10872;SDS011;34586;53.616;10.032;2022-11-24T02:54:44;8.20;;;4.23;;
10872;SDS011;34586;53.616;10.032;2022-11-24T02:57:10;7.97;;;4.43;;
10872;SDS011;34586;53.616;10.032;2022-11-24T02:59:36;7.83;;;4.20;;
10872;SDS011;34586;53.616;10.032;2022-11-24T03:02:02;9.23;;;4.80;;
10872;SDS011;34586;53.616;10.032;2022-11-24T03:04:28;8.03;;;5.30;;
10872;SDS011;34586;53.616;10.032;2022-11-24T03:06:55;6.20;;;4.43;;
10872;SDS011;34586;53.616;10.032;2022-11-24T03:09:22;6.30;;;4.30;;
10872;SDS011;34586;53.616;10.032;2022-11-24T03:11:47;9.50;;;4.93;;
10872;SDS011;34586;53.616;10.032;2022-11-24T03:14:13;8.13;;;4.30;;
10872;SDS011;34586;53.616;10.032;2022-11-24T03:16:39;8.77;;;5.20;;
10872;SDS011;34586;53.616;10.032;2022-11-24T03:19:04;7.63;;;4.70;;
10872;SDS011;34586;53.616;10.032;2022-11-24T03:21:30;7.63;;;4.87;;
10872;SDS011;34586;53.616;10.032;2022-11-24T03:23:56;5.60;;;4.43;;
10872;SDS011;34586;53.616;10.032;2022-11-24T03:26:22;9.53;;;5.00;;
10872;SDS011;34586;53.616;10.032;2022-11-24T03:28:49;7.00;;;4.70;;
10872;SDS011;34586;53.616;10.032;2022-11-24T03:31:17;8.50;;;4.40;;
10872;SDS011;34586;53.616;10.032;2022-11-24T03:33:43;6.33;;;4.23;;
10872;SDS011;34586;53.616;10.032;2022-11-24T03:36:09;8.00;;;5.30;;
10872;SDS011;34586;53.616;10.032;2022-11-24T03:38:34;10.23;;;5.17;;
10872;SDS011;34586;53.616;10.032;2022-11-24T03:41:00;8.43;;;4.87;;
10872;SDS011;34586;53.616;10.032;2022-11-24T03:43:26;11.20;;;5.47;;
10872;SDS011;34586;53.616;10.032;2022-11-24T03:45:53;8.67;;;5.23;;
10872;SDS011;34586;53.616;10.032;2022-11-24T03:48:19;7.43;;;4.77;;
10872;SDS011;34586;53.616;10.032;2022-11-24T03:50:55;7.60;;;4.90;;
10872;SDS011;34586;53.616;10.032;2022-11-24T03:53:22;6.20;;;4.87;;
10872;SDS011;34586;53.616;10.032;2022-11-24T03:55:50;7.87;;;4.67;;
10872;SDS011;34586;53.616;10.032;2022-11-24T03:58:16;7.30;;;4.77;;
10872;SDS011;34586;53.616;10.032;2022-11-24T04:00:41;5.40;;;4.67;;
10872;SDS011;34586;53.616;10.032;2022-11-24T04:03:07;7.83;;;4.63;;
10872;SDS011;34586;53.616;10.032;2022-11-24T04:05:33;7.40;;;4.50;;
10872;SDS011;34586;53.616;10.032;2022-11-24T04:08:00;9.80;;;5.00;;
10872;SDS011;34586;53.616;10.032;2022-11-24T04:10:28;6.83;;;4.70;;
10872;SDS011;34586;53.616;10.032;2022-11-24T04:12:55;8.00;;;4.90;;
10872;SDS011;34586;53.616;10.032;2022-11-24T04:15:21;7.93;;;5.20;;
10872;SDS011;34586;53.616;10.032;2022-11-24T04:17:47;7.17;;;4.47;;
10872;SDS011;34586;53.616;10.032;2022-11-24T04:20:15;11.03;;;4.87;;
10872;SDS011;34586;53.616;10.032;2022-11-24T04:22:41;10.80;;;5.10;;
10872;SDS011;34586;53.616;10.032;2022-11-24T04:25:07;9.07;;;4.63;;
10872;SDS011;34586;53.616;10.032;2022-11-24T04:27:35;6.50;;;4.57;;
10872;SDS011;34586;53.616;10.032;2022-11-24T04:30:02;8.80;;;5.07;;
10872;SDS011;34586;53.616;10.032;2022-11-24T04:32:28;8.30;;;4.73;;
10872;SDS011;34586;53.616;10.032;2022-11-24T04:34:54;13.50;;;5.13;;
10872;SDS011;34586;53.616;10.032;2022-11-24T04:37:21;8.80;;;4.97;;
10872;SDS011;34586;53.616;10.032;2022-11-24T04:39:47;8.67;;;4.93;;
10872;SDS011;34586;53.616;10.032;2022-11-24T04:42:12;8.20;;;4.73;;
10872;SDS011;34586;53.616;10.032;2022-11-24T04:44:38;9.77;;;5.03;;
10872;SDS011;34586;53.616;10.032;2022-11-24T04:47:05;6.70;;;4.60;;
10872;SDS011;34586;53.616;10.032;2022-11-24T04:49:30;7.43;;;5.10;;
10872;SDS011;34586;53.616;10.032;2022-11-24T04:51:56;7.13;;;4.33;;
10872;SDS011;34586;53.616;10.032;2022-11-24T04:54:23;6.53;;;4.97;;
10872;SDS011;34586;53.616;10.032;2022-11-24T04:56:49;9.47;;;4.90;;
10872;SDS011;34586;53.616;10.032;2022-11-24T04:59:16;8.93;;;4.57;;
10872;SDS011;34586;53.616;10.032;2022-11-24T05:01:42;7.43;;;4.43;;
10872;SDS011;34586;53.616;10.032;2022-11-24T05:04:11;7.00;;;4.93;;
10872;SDS011;34586;53.616;10.032;2022-11-24T05:06:38;6.67;;;4.77;;
10872;SDS011;34586;53.616;10.032;2022-11-24T05:09:04;9.33;;;4.80;;
10872;SDS011;34586;53.616;10.032;2022-11-24T05:11:31;9.03;;;4.90;;
10872;SDS011;34586;53.616;10.032;2022-11-24T05:13:57;8.17;;;4.90;;
10872;SDS011;34586;53.616;10.032;2022-11-24T05:16:23;8.37;;;5.03;;
10872;SDS011;34586;53.616;10.032;2022-11-24T05:18:48;8.33;;;4.63;;
10872;SDS011;34586;53.616;10.032;2022-11-24T05:21:14;6.53;;;4.67;;
10872;SDS011;34586;53.616;10.032;2022-11-24T05:23:40;8.90;;;4.77;;
10872;SDS011;34586;53.616;10.032;2022-11-24T05:26:06;8.27;;;5.00;;
10872;SDS011;34586;53.616;10.032;2022-11-24T05:28:32;9.73;;;5.57;;
10872;SDS011;34586;53.616;10.032;2022-11-24T05:30:58;9.80;;;4.37;;
10872;SDS011;34586;53.616;10.032;2022-11-24T05:33:28;9.43;;;5.13;;
10872;SDS011;34586;53.616;10.032;2022-11-24T05:36:01;9.00;;;4.73;;
10872;SDS011;34586;53.616;10.032;2022-11-24T05:38:28;8.53;;;4.80;;
10872;SDS011;34586;53.616;10.032;2022-11-24T05:40:58;12.23;;;5.87;;
10872;SDS011;34586;53.616;10.032;2022-11-24T05:43:24;12.07;;;4.60;;
10872;SDS011;34586;53.616;10.032;2022-11-24T05:45:50;9.63;;;4.90;;
10872;SDS011;34586;53.616;10.032;2022-11-24T05:48:15;9.40;;;5.50;;
10872;SDS011;34586;53.616;10.032;2022-11-24T05:50:42;7.10;;;4.57;;
10872;SDS011;34586;53.616;10.032;2022-11-24T05:53:09;8.20;;;5.20;;
10872;SDS011;34586;53.616;10.032;2022-11-24T05:55:36;9.30;;;5.10;;
10872;SDS011;34586;53.616;10.032;2022-11-24T05:58:04;7.83;;;5.03;;
10872;SDS011;34586;53.616;10.032;2022-11-24T06:00:31;9.37;;;5.13;;
10872;SDS011;34586;53.616;10.032;2022-11-24T06:02:57;9.63;;;5.20;;
10872;SDS011;34586;53.616;10.032;2022-11-24T06:05:24;6.37;;;5.03;;
10872;SDS011;34586;53.616;10.032;2022-11-24T06:07:50;9.63;;;5.23;;
10872;SDS011;34586;53.616;10.032;2022-11-24T06:10:16;7.77;;;4.93;;
10872;SDS011;34586;53.616;10.032;2022-11-24T06:12:45;10.53;;;5.13;;
10872;SDS011;34586;53.616;10.032;2022-11-24T06:15:11;11.93;;;5.40;;
10872;SDS011;34586;53.616;10.032;2022-11-24T06:17:37;10.47;;;4.90;;
10872;SDS011;34586;53.616;10.032;2022-11-24T06:20:04;10.70;;;5.20;;
10872;SDS011;34586;53.616;10.032;2022-11-24T06:22:31;9.27;;;5.40;;
10872;SDS011;34586;53.616;10.032;2022-11-24T06:24:59;10.23;;;5.20;;
10872;SDS011;34586;53.616;10.032;2022-11-24T06:27:25;8.43;;;5.23;;
10872;SDS011;34586;53.616;10.032;2022-11-24T06:29:51;9.23;;;5.40;;
10872;SDS011;34586;53.616;10.032;2022-11-24T06:32:16;11.37;;;5.10;;
10872;SDS011;34586;53.616;10.032;2022-11-24T06:34:42;10.67;;;5.83;;
10872;SDS011;34586;53.616;10.032;2022-11-24T06:37:09;11.07;;;6.33;;
10872;SDS011;34586;53.616;10.032;2022-11-24T06:39:36;10.13;;;5.70;;
10872;SDS011;34586;53.616;10.032;2022-11-24T06:42:01;8.43;;;5.30;;
10872;SDS011;34586;53.616;10.032;2022-11-24T06:44:27;9.80;;;5.33;;
10872;SDS011;34586;53.616;10.032;2022-11-24T06:46:53;8.20;;;5.53;;
10872;SDS011;34586;53.616;10.032;2022-11-24T06:49:19;9.83;;;5.87;;
10872;SDS011;34586;53.616;10.032;2022-11-24T06:51:44;15.07;;;6.13;;
10872;SDS011;34586;53.616;10.032;2022-11-24T06:54:12;10.10;;;5.73;;
10872;SDS011;34586;53.616;10.032;2022-11-24T06:56:39;11.70;;;5.90;;
10872;SDS011;34586;53.616;10.032;2022-11-24T06:59:05;10.90;;;5.87;;
10872;SDS011;34586;53.616;10.032;2022-11-24T07:01:30;12.57;;;6.23;;
10872;SDS011;34586;53.616;10.032;2022-11-24T07:03:56;8.27;;;5.50;;
10872;SDS011;34586;53.616;10.032;2022-11-24T07:06:23;13.67;;;5.83;;
10872;SDS011;34586;53.616;10.032;2022-11-24T07:08:50;12.70;;;7.00;;
10872;SDS011;34586;53.616;10.032;2022-11-24T07:11:18;11.53;;;6.37;;
10872;SDS011;34586;53.616;10.032;2022-11-24T07:13:46;10.00;;;6.43;;
10872;SDS011;34586;53.616;10.032;2022-11-24T07:18:43;18.03;;;6.67;;
10872;SDS011;34586;53.616;10.032;2022-11-24T07:21:10;13.63;;;6.40;;
10872;SDS011;34586;53.616;10.032;2022-11-24T07:23:36;11.97;;;6.67;;
10872;SDS011;34586;53.616;10.032;2022-11-24T07:26:02;8.87;;;6.43;;
10872;SDS011;34586;53.616;10.032;2022-11-24T07:28:29;14.77;;;6.80;;
10872;SDS011;34586;53.616;10.032;2022-11-24T07:30:56;9.97;;;6.40;;
10872;SDS011;34586;53.616;10.032;2022-11-24T07:33:22;13.57;;;6.80;;
10872;SDS011;34586;53.616;10.032;2022-11-24T07:35:51;14.70;;;6.80;;
10872;SDS011;34586;53.616;10.032;2022-11-24T07:38:17;12.60;;;6.57;;
10872;SDS011;34586;53.616;10.032;2022-11-24T07:40:43;13.57;;;6.70;;
10872;SDS011;34586;53.616;10.032;2022-11-24T07:43:09;12.03;;;6.33;;
10872;SDS011;34586;53.616;10.032;2022-11-24T07:45:35;13.00;;;6.47;;
10872;SDS011;34586;53.616;10.032;2022-11-24T07:48:01;13.07;;;6.67;;
10872;SDS011;34586;53.616;10.032;2022-11-24T07:50:28;11.87;;;6.70;;
10872;SDS011;34586;53.616;10.032;2022-11-24T07:52:54;14.30;;;7.07;;
10872;SDS011;34586;53.616;10.032;2022-11-24T07:55:19;14.13;;;6.93;;
10872;SDS011;34586;53.616;10.032;2022-11-24T07:57:45;10.13;;;6.50;;
10872;SDS011;34586;53.616;10.032;2022-11-24T08:00:10;14.80;;;6.50;;
10872;SDS011;34586;53.616;10.032;2022-11-24T08:02:37;10.17;;;6.60;;
10872;SDS011;34586;53.616;10.032;2022-11-24T08:05:02;12.90;;;7.03;;
10872;SDS011;34586;53.616;10.032;2022-11-24T08:07:30;13.03;;;7.50;;
10872;SDS011;34586;53.616;10.032;2022-11-24T08:09:56;15.17;;;7.60;;
10872;SDS011;34586;53.616;10.032;2022-11-24T08:12:22;12.67;;;6.87;;
10872;SDS011;34586;53.616;10.032;2022-11-24T08:14:49;14.90;;;7.53;;
10872;SDS011;34586;53.616;10.032;2022-11-24T08:17:15;14.87;;;8.40;;
10872;SDS011;34586;53.616;10.032;2022-11-24T08:19:42;11.93;;;8.20;;
10872;SDS011;34586;53.616;10.032;2022-11-24T08:22:08;13.53;;;7.50;;
10872;SDS011;34586;53.616;10.032;2022-11-24T08:24:33;11.47;;;7.60;;
10872;SDS011;34586;53.616;10.032;2022-11-24T08:26:59;16.80;;;8.70;;
10872;SDS011;34586;53.616;10.032;2022-11-24T08:29:28;14.83;;;8.30;;
10872;SDS011;34586;53.616;10.032;2022-11-24T08:31:55;16.53;;;7.90;;
10872;SDS011;34586;53.616;10.032;2022-11-24T08:34:21;16.30;;;8.20;;
10872;SDS011;34586;53.616;10.032;2022-11-24T08:36:48;14.20;;;8.00;;
10872;SDS011;34586;53.616;10.032;2022-11-24T08:39:14;16.97;;;8.40;;
10872;SDS011;34586;53.616;10.032;2022-11-24T08:41:40;16.53;;;7.77;;
10872;SDS011;34586;53.616;10.032;2022-11-24T08:44:06;14.37;;;7.37;;
10872;SDS011;34586;53.616;10.032;2022-11-24T08:46:34;16.00;;;7.80;;
10872;SDS011;34586;53.616;10.032;2022-11-24T08:48:59;15.37;;;7.40;;
10872;SDS011;34586;53.616;10.032;2022-11-24T08:51:25;15.50;;;7.33;;
10872;SDS011;34586;53.616;10.032;2022-11-24T08:53:55;13.07;;;6.27;;
10872;SDS011;34586;53.616;10.032;2022-11-24T08:56:22;14.53;;;7.07;;
10872;SDS011;34586;53.616;10.032;2022-11-24T08:58:48;13.97;;;7.30;;
10872;SDS011;34586;53.616;10.032;2022-11-24T09:01:14;13.47;;;6.47;;
10872;SDS011;34586;53.616;10.032;2022-11-24T09:03:42;13.83;;;6.70;;
10872;SDS011;34586;53.616;10.032;2022-11-24T09:06:09;16.07;;;6.87;;
10872;SDS011;34586;53.616;10.032;2022-11-24T09:08:35;15.73;;;6.83;;
10872;SDS011;34586;53.616;10.032;2022-11-24T09:11:02;14.60;;;6.60;;
10872;SDS011;34586;53.616;10.032;2022-11-24T09:13:30;15.83;;;6.57;;
10872;SDS011;34586;53.616;10.032;2022-11-24T09:16:01;13.23;;;5.53;;
10872;SDS011;34586;53.616;10.032;2022-11-24T09:18:28;13.90;;;5.73;;
10872;SDS011;34586;53.616;10.032;2022-11-24T09:20:54;14.87;;;6.03;;
10872;SDS011;34586;53.616;10.032;2022-11-24T09:23:22;12.97;;;6.10;;
10872;SDS011;34586;53.616;10.032;2022-11-24T09:25:47;14.93;;;6.30;;
10872;SDS011;34586;53.616;10.032;2022-11-24T09:28:13;13.90;;;5.53;;
10872;SDS011;34586;53.616;10.032;2022-11-24T09:30:39;12.93;;;5.57;;
10872;SDS011;34586;53.616;10.032;2022-11-24T09:33:05;11.67;;;6.13;;
10872;SDS011;34586;53.616;10.032;2022-11-24T09:35:35;10.40;;;5.20;;
10872;SDS011;34586;53.616;10.032;2022-11-24T09:38:01;9.47;;;5.67;;
10872;SDS011;34586;53.616;10.032;2022-11-24T09:40:27;12.27;;;5.97;;
10872;SDS011;34586;53.616;10.032;2022-11-24T09:48:25;11.67;;;5.10;;
10872;SDS011;34586;53.616;10.032;2022-11-24T09:50:54;12.90;;;5.97;;
10872;SDS011;34586;53.616;10.032;2022-11-24T09:56:25;12.83;;;5.50;;
10872;SDS011;34586;53.616;10.032;2022-11-24T10:01:35;11.43;;;5.30;;
10872;SDS011;34586;53.616;10.032;2022-11-24T10:04:15;10.50;;;5.30;;
10872;SDS011;34586;53.616;10.032;2022-11-24T10:07:04;14.13;;;5.00;;
10872;SDS011;34586;53.616;10.032;2022-11-24T10:13:44;15.20;;;5.67;;
10872;SDS011;34586;53.616;10.032;2022-11-24T10:15:56;16.10;;;5.73;;
10872;SDS011;34586;53.616;10.032;2022-11-24T10:26:57;16.77;;;5.23;;
10872;SDS011;34586;53.616;10.032;2022-11-24T10:32:04;12.93;;;5.47;;
10872;SDS011;34586;53.616;10.032;2022-11-24T10:34:38;13.13;;;5.20;;
10872;SDS011;34586;53.616;10.032;2022-11-24T10:37:13;13.47;;;5.10;;
10872;SDS011;34586;53.616;10.032;2022-11-24T10:42:43;13.37;;;5.10;;
10872;SDS011;34586;53.616;10.032;2022-11-24T10:47:39;15.20;;;5.37;;
10872;SDS011;34586;53.616;10.032;2022-11-24T10:58:22;14.87;;;4.67;;
10872;SDS011;34586;53.616;10.032;2022-11-24T11:00:53;12.33;;;4.43;;
10872;SDS011;34586;53.616;10.032;2022-11-24T11:03:22;12.77;;;5.10;;
10872;SDS011;34586;53.616;10.032;2022-11-24T11:08:37;9.73;;;4.43;;
10872;SDS011;34586;53.616;10.032;2022-11-24T11:14:03;13.80;;;4.50;;
10872;SDS011;34586;53.616;10.032;2022-11-24T11:24:34;13.00;;;4.67;;
10872;SDS011;34586;53.616;10.032;2022-11-24T11:27:03;13.27;;;4.20;;
10872;SDS011;34586;53.616;10.032;2022-11-24T11:29:40;14.50;;;4.97;;
10872;SDS011;34586;53.616;10.032;2022-11-24T11:32:25;14.07;;;5.23;;
10872;SDS011;34586;53.616;10.032;2022-11-24T11:34:55;19.63;;;5.60;;
10872;SDS011;34586;53.616;10.032;2022-11-24T11:37:23;17.37;;;5.47;;
10872;SDS011;34586;53.616;10.032;2022-11-24T11:39:52;11.83;;;4.67;;
10872;SDS011;34586;53.616;10.032;2022-11-24T11:47:55;13.73;;;4.60;;
10872;SDS011;34586;53.616;10.032;2022-11-24T11:50:39;11.80;;;4.60;;
10872;SDS011;34586;53.616;10.032;2022-11-24T11:55:52;11.60;;;4.60;;
10872;SDS011;34586;53.616;10.032;2022-11-24T12:06:38;15.33;;;4.77;;
10872;SDS011;34586;53.616;10.032;2022-11-24T12:09:21;11.10;;;4.80;;
10872;SDS011;34586;53.616;10.032;2022-11-24T12:15:11;10.70;;;4.37;;
10872;SDS011;34586;53.616;10.032;2022-11-24T12:17:49;12.77;;;4.77;;
10872;SDS011;34586;53.616;10.032;2022-11-24T12:26:11;13.67;;;4.97;;
10872;SDS011;34586;53.616;10.032;2022-11-24T12:29:01;13.10;;;4.80;;
10872;SDS011;34586;53.616;10.032;2022-11-24T12:42:49;12.97;;;4.73;;
10872;SDS011;34586;53.616;10.032;2022-11-24T12:50:48;12.90;;;4.83;;
10872;SDS011;34586;53.616;10.032;2022-11-24T12:53:23;11.57;;;4.90;;
10872;SDS011;34586;53.616;10.032;2022-11-24T12:55:53;13.70;;;4.60;;
10872;SDS011;34586;53.616;10.032;2022-11-24T13:01:51;13.47;;;4.47;;
10872;SDS011;34586;53.616;10.032;2022-11-24T13:04:35;16.93;;;4.70;;
10872;SDS011;34586;53.616;10.032;2022-11-24T13:07:14;15.43;;;5.00;;
10872;SDS011;34586;53.616;10.032;2022-11-24T13:13:00;20.53;;;4.73;;
10872;SDS011;34586;53.616;10.032;2022-11-24T13:16:15;16.13;;;4.77;;
10872;SDS011;34586;53.616;10.032;2022-11-24T13:24:04;10.23;;;4.10;;
10872;SDS011;34586;53.616;10.032;2022-11-24T13:26:43;16.13;;;4.73;;
10872;SDS011;34586;53.616;10.032;2022-11-24T13:31:52;12.30;;;4.43;;
10872;SDS011;34586;53.616;10.032;2022-11-24T13:37:16;12.83;;;4.23;;
10872;SDS011;34586;53.616;10.032;2022-11-24T13:39:46;12.60;;;3.97;;
10872;SDS011;34586;53.616;10.032;2022-11-24T13:42:12;15.33;;;4.70;;
10872;SDS011;34586;53.616;10.032;2022-11-24T13:44:47;13.70;;;4.37;;
10872;SDS011;34586;53.616;10.032;2022-11-24T13:47:28;10.93;;;4.33;;
10872;SDS011;34586;53.616;10.032;2022-11-24T13:49:57;12.60;;;4.27;;
10872;SDS011;34586;53.616;10.032;2022-11-24T13:57:49;14.50;;;4.47;;
10872;SDS011;34586;53.616;10.032;2022-11-24T14:00:31;18.00;;;4.53;;
10872;SDS011;34586;53.616;10.032;2022-11-24T14:03:17;12.77;;;4.40;;
10872;SDS011;34586;53.616;10.032;2022-11-24T14:05:50;16.33;;;4.50;;
10872;SDS011;34586;53.616;10.032;2022-11-24T14:10:53;11.23;;;4.07;;
10872;SDS011;34586;53.616;10.032;2022-11-24T14:16:12;13.97;;;4.07;;
10872;SDS011;34586;53.616;10.032;2022-11-24T14:18:46;10.37;;;3.53;;
10872;SDS011;34586;53.616;10.032;2022-11-24T14:24:02;14.43;;;4.40;;
10872;SDS011;34586;53.616;10.032;2022-11-24T14:26:37;10.70;;;3.47;;
10872;SDS011;34586;53.616;10.032;2022-11-24T14:29:05;11.40;;;3.40;;
10872;SDS011;34586;53.616;10.032;2022-11-24T14:31:36;10.90;;;3.70;;
10872;SDS011;34586;53.616;10.032;2022-11-24T14:34:07;14.23;;;4.30;;
10872;SDS011;34586;53.616;10.032;2022-11-24T14:36:38;14.30;;;3.93;;
10872;SDS011;34586;53.616;10.032;2022-11-24T14:39:10;14.63;;;4.30;;
10872;SDS011;34586;53.616;10.032;2022-11-24T14:41:41;15.53;;;4.63;;
10872;SDS011;34586;53.616;10.032;2022-11-24T14:44:18;13.07;;;4.37;;
10872;SDS011;34586;53.616;10.032;2022-11-24T14:46:48;15.63;;;4.23;;
10872;SDS011;34586;53.616;10.032;2022-11-24T14:49:21;11.93;;;4.60;;
10872;SDS011;34586;53.616;10.032;2022-11-24T14:51:55;15.87;;;4.63;;
10872;SDS011;34586;53.616;10.032;2022-11-24T14:54:26;14.33;;;4.27;;
10872;SDS011;34586;53.616;10.032;2022-11-24T14:56:57;15.97;;;4.83;;
10872;SDS011;34586;53.616;10.032;2022-11-24T14:59:30;11.83;;;3.73;;
10872;SDS011;34586;53.616;10.032;2022-11-24T15:02:00;12.83;;;4.07;;
10872;SDS011;34586;53.616;10.032;2022-11-24T15:04:29;13.90;;;4.37;;
10872;SDS011;34586;53.616;10.032;2022-11-24T15:07:29;19.97;;;4.23;;
10872;SDS011;34586;53.616;10.032;2022-11-24T15:09:56;17.60;;;4.90;;
10872;SDS011;34586;53.616;10.032;2022-11-24T15:12:25;15.47;;;4.23;;
10872;SDS011;34586;53.616;10.032;2022-11-24T15:14:56;14.00;;;4.37;;
10872;SDS011;34586;53.616;10.032;2022-11-24T15:17:29;12.47;;;4.50;;
10872;SDS011;34586;53.616;10.032;2022-11-24T15:20:01;18.70;;;4.80;;
10872;SDS011;34586;53.616;10.032;2022-11-24T15:22:39;17.03;;;5.93;;
10872;SDS011;34586;53.616;10.032;2022-11-24T15:27:50;15.13;;;4.47;;
10872;SDS011;34586;53.616;10.032;2022-11-24T15:30:16;18.83;;;5.37;;
10872;SDS011;34586;53.616;10.032;2022-11-24T15:32:52;15.10;;;4.80;;
10872;SDS011;34586;53.616;10.032;2022-11-24T15:35:18;17.13;;;4.87;;
10872;SDS011;34586;53.616;10.032;2022-11-24T15:37:45;17.73;;;4.93;;
10872;SDS011;34586;53.616;10.032;2022-11-24T15:40:11;18.63;;;5.27;;
10872;SDS011;34586;53.616;10.032;2022-11-24T15:42:37;16.37;;;5.73;;
10872;SDS011;34586;53.616;10.032;2022-11-24T15:45:03;16.30;;;5.47;;
10872;SDS011;34586;53.616;10.032;2022-11-24T15:47:29;15.03;;;5.57;;
10872;SDS011;34586;53.616;10.032;2022-11-24T15:49:55;13.33;;;5.47;;
10872;SDS011;34586;53.616;10.032;2022-11-24T15:52:21;18.87;;;5.63;;
10872;SDS011;34586;53.616;10.032;2022-11-24T15:54:50;13.73;;;4.93;;
10872;SDS011;34586;53.616;10.032;2022-11-24T15:57:19;15.80;;;5.00;;
10872;SDS011;34586;53.616;10.032;2022-11-24T15:59:45;15.17;;;5.10;;
10872;SDS011;34586;53.616;10.032;2022-11-24T16:02:10;16.03;;;5.13;;
10872;SDS011;34586;53.616;10.032;2022-11-24T16:04:36;16.07;;;5.10;;
10872;SDS011;34586;53.616;10.032;2022-11-24T16:07:05;13.60;;;5.00;;
10872;SDS011;34586;53.616;10.032;2022-11-24T16:09:37;12.87;;;4.53;;
10872;SDS011;34586;53.616;10.032;2022-11-24T16:12:03;15.77;;;4.90;;
10872;SDS011;34586;53.616;10.032;2022-11-24T16:14:29;11.13;;;4.50;;
10872;SDS011;34586;53.616;10.032;2022-11-24T16:16:54;15.60;;;4.87;;
10872;SDS011;34586;53.616;10.032;2022-11-24T16:19:20;12.10;;;4.77;;
10872;SDS011;34586;53.616;10.032;2022-11-24T16:21:46;15.87;;;5.17;;
10872;SDS011;34586;53.616;10.032;2022-11-24T16:24:12;16.10;;;4.97;;
10872;SDS011;34586;53.616;10.032;2022-11-24T16:26:38;16.00;;;5.87;;
10872;SDS011;34586;53.616;10.032;2022-11-24T16:29:04;12.67;;;5.73;;
10872;SDS011;34586;53.616;10.032;2022-11-24T16:31:30;13.40;;;6.17;;
10872;SDS011;34586;53.616;10.032;2022-11-24T16:33:55;22.83;;;7.07;;
10872;SDS011;34586;53.616;10.032;2022-11-24T16:36:21;17.63;;;7.80;;
10872;SDS011;34586;53.616;10.032;2022-11-24T16:38:47;19.93;;;8.83;;
10872;SDS011;34586;53.616;10.032;2022-11-24T16:41:12;23.03;;;9.53;;
10872;SDS011;34586;53.616;10.032;2022-11-24T16:43:38;26.33;;;10.03;;
10872;SDS011;34586;53.616;10.032;2022-11-24T16:48:58;24.13;;;8.70;;
10872;SDS011;34586;53.616;10.032;2022-11-24T16:51:25;25.07;;;9.00;;